createdAt,value
2023-02-21T00:00:11.111Z,95008.91
2023-02-21T00:02:32.918Z,95019.78
2023-02-21T00:04:53.129Z,95023.47
2023-02-21T00:07:13.356Z,95012.59
2023-02-21T00:09:33.767Z,95012.88
2023-02-21T00:11:53.797Z,94998.72
2023-02-21T00:14:13.788Z,95001.41
2023-02-21T00:16:36.941Z,95008.69
2023-02-21T00:18:57.728Z,95012.13
2023-02-21T00:21:17.427Z,95004.94
2023-02-21T00:23:37.441Z,95001.72
2023-02-21T00:26:09.653Z,94993.06
2023-02-21T00:28:30.075Z,95003.94
2023-02-21T00:30:50.148Z,95009.94
2023-02-21T00:33:10.416Z,94994.47
2023-02-21T00:35:30.779Z,94977.91
2023-02-21T00:37:50.737Z,94992.31
2023-02-21T00:40:10.687Z,94993.44
2023-02-21T00:42:30.717Z,94988.69
2023-02-21T00:44:51.004Z,94989.00
2023-02-21T00:47:10.970Z,94990.84
2023-02-21T00:49:31.386Z,94989.84
2023-02-21T00:51:51.307Z,94983.31
2023-02-21T00:54:11.660Z,94982.22
2023-02-21T00:56:31.667Z,94983.22
2023-02-21T00:58:51.530Z,94970.47
2023-02-21T01:01:11.367Z,94961.50
2023-02-21T01:03:31.177Z,94973.22
2023-02-21T01:05:51.161Z,94963.41
2023-02-21T01:08:11.039Z,94946.88
2023-02-21T01:10:31.498Z,94937.59
2023-02-21T01:12:51.887Z,94947.56
2023-02-21T01:15:11.674Z,94947.38
2023-02-21T01:17:31.577Z,94923.56
2023-02-21T01:19:51.892Z,94931.38
2023-02-21T01:22:12.111Z,94922.97
2023-02-21T01:24:34.050Z,94936.56
2023-02-21T01:26:54.579Z,94934.09
2023-02-21T01:29:14.817Z,94927.00
2023-02-21T01:31:38.679Z,94934.22
2023-02-21T01:34:00.008Z,94917.16
2023-02-21T01:36:19.953Z,94932.28
2023-02-21T01:38:39.764Z,94925.28
2023-02-21T01:41:00.121Z,94930.03
2023-02-21T01:43:20.019Z,94922.63
2023-02-21T01:45:39.818Z,94933.34
2023-02-21T01:48:00.205Z,94928.84
2023-02-21T01:50:24.587Z,94915.44
2023-02-21T01:52:44.765Z,94903.81
2023-02-21T01:55:07.615Z,94912.84
2023-02-21T01:57:27.623Z,94910.88
2023-02-21T01:59:48.067Z,94902.94
2023-02-21T02:02:23.692Z,94903.75
2023-02-21T02:04:43.794Z,94902.44
2023-02-21T02:07:04.371Z,94898.00
2023-02-21T02:09:38.148Z,94900.16
2023-02-21T02:12:09.334Z,94895.66
2023-02-21T02:14:37.221Z,94880.91
2023-02-21T02:17:04.866Z,94880.00
2023-02-21T02:19:30.815Z,94884.69
2023-02-21T02:21:48.471Z,94885.09
2023-02-21T02:24:12.377Z,94889.09
2023-02-21T02:26:37.173Z,94880.59
2023-02-21T02:28:38.822Z,94882.50
2023-02-21T02:31:08.328Z,94876.00
2023-02-21T02:33:34.513Z,94879.59
2023-02-21T02:35:43.262Z,94868.31
2023-02-21T02:38:22.385Z,94870.94
2023-02-21T02:40:35.015Z,94873.41
2023-02-21T02:43:01.461Z,94877.81
2023-02-21T02:45:24.264Z,94876.97
2023-02-21T02:47:30.558Z,94875.72
2023-02-21T02:49:34.174Z,94880.72
2023-02-21T02:51:36.234Z,94861.28
2023-02-21T02:53:37.885Z,94868.22
2023-02-21T02:55:43.508Z,94866.22
2023-02-21T02:57:48.892Z,94883.91
2023-02-21T02:59:50.633Z,94887.66
2023-02-21T03:02:12.052Z,94865.19
2023-02-21T03:04:39.991Z,94871.53
2023-02-21T03:06:51.234Z,94869.97
2023-02-21T03:09:09.676Z,94868.81
2023-02-21T03:11:16.456Z,94865.66
2023-02-21T03:13:22.368Z,94871.41
2023-02-21T03:15:37.413Z,94877.72
2023-02-21T03:17:45.166Z,94866.91
2023-02-21T03:19:47.657Z,94858.22
2023-02-21T03:21:52.265Z,94857.81
2023-02-21T03:23:56.925Z,94859.59
2023-02-21T03:26:01.650Z,94854.09
2023-02-21T03:28:03.371Z,94848.91
2023-02-21T03:30:06.299Z,94852.72
2023-02-21T03:32:18.849Z,94854.72
2023-02-21T03:34:20.759Z,94856.41
2023-02-21T03:36:22.665Z,94856.16
2023-02-21T03:38:24.255Z,94853.16
2023-02-21T03:40:30.520Z,94855.13
2023-02-21T03:42:32.162Z,94844.88
2023-02-21T03:44:33.804Z,94830.16
2023-02-21T03:46:35.514Z,94845.34
2023-02-21T03:48:37.146Z,94830.31
2023-02-21T03:50:38.937Z,94862.41
2023-02-21T03:52:40.570Z,94861.22
2023-02-21T03:54:42.383Z,94862.25
2023-02-21T03:56:44.098Z,94872.59
2023-02-21T03:58:45.814Z,94881.19
2023-02-21T04:00:47.718Z,94845.44
2023-02-21T04:02:49.539Z,94865.28
2023-02-21T04:04:51.299Z,94865.56
2023-02-21T04:06:52.878Z,94852.78
2023-02-21T04:08:54.420Z,94867.47
2023-02-21T04:10:56.052Z,94860.84
2023-02-21T04:12:57.661Z,94874.75
2023-02-21T04:14:59.276Z,94881.38
2023-02-21T04:17:00.872Z,94879.41
2023-02-21T04:19:02.653Z,94863.50
2023-02-21T04:21:04.438Z,94900.63
2023-02-21T04:23:06.046Z,94891.66
2023-02-21T04:25:08.365Z,94878.19
2023-02-21T04:27:09.978Z,94898.00
2023-02-21T04:29:11.840Z,94907.31
2023-02-21T04:31:16.355Z,94901.53
2023-02-21T04:33:18.127Z,94897.59
2023-02-21T04:35:19.804Z,94908.44
2023-02-21T04:37:21.430Z,94902.03
2023-02-21T04:39:23.088Z,94911.69
2023-02-21T04:41:24.713Z,94912.97
2023-02-21T04:43:26.872Z,94912.50
2023-02-21T04:45:28.947Z,94913.03
2023-02-21T04:47:30.590Z,94900.84
2023-02-21T04:49:32.222Z,94909.94
2023-02-21T04:51:33.858Z,94899.16
2023-02-21T04:53:35.488Z,94893.97
2023-02-21T04:55:37.158Z,94903.19
2023-02-21T04:57:38.786Z,94899.16
2023-02-21T04:59:40.526Z,94892.56
2023-02-21T05:01:42.114Z,94874.91
2023-02-21T05:03:43.733Z,94899.53
2023-02-21T05:05:45.318Z,94884.38
2023-02-21T05:07:46.929Z,94880.56
2023-02-21T05:09:48.508Z,94877.13
2023-02-21T05:11:50.134Z,94873.41
2023-02-21T05:13:52.017Z,94851.63
2023-02-21T05:15:53.618Z,94858.94
2023-02-21T05:17:55.226Z,94853.16
2023-02-21T05:19:56.810Z,94858.31
2023-02-21T05:22:00.975Z,94844.75
2023-02-21T05:24:02.723Z,94833.00
2023-02-21T05:26:12.602Z,94839.09
2023-02-21T05:28:14.198Z,94843.91
2023-02-21T05:30:18.908Z,94840.19
2023-02-21T05:32:22.147Z,94851.16
2023-02-21T05:34:23.839Z,94847.47
2023-02-21T05:36:31.613Z,94846.91
2023-02-21T05:38:33.358Z,94853.00
2023-02-21T05:40:34.977Z,94864.06
2023-02-21T05:42:36.572Z,94855.13
2023-02-21T05:44:38.139Z,94872.63
2023-02-21T05:46:39.698Z,94862.19
2023-02-21T05:48:41.307Z,94866.78
2023-02-21T05:50:42.923Z,94874.84
2023-02-21T05:52:44.478Z,94874.28
2023-02-21T05:54:46.044Z,94877.34
2023-02-21T05:56:50.705Z,94882.69
2023-02-21T05:58:52.347Z,94897.66
2023-02-21T06:00:53.952Z,94897.13
2023-02-21T06:02:56.035Z,94888.22
2023-02-21T06:04:57.634Z,94895.13
2023-02-21T06:06:59.200Z,94907.72
2023-02-21T06:09:00.850Z,94898.16
2023-02-21T06:11:02.491Z,94894.09
2023-02-21T06:13:04.207Z,94910.56
2023-02-21T06:15:08.929Z,94888.66
2023-02-21T06:17:10.592Z,94897.94
2023-02-21T06:19:13.320Z,94894.31
2023-02-21T06:21:15.132Z,94902.72
2023-02-21T06:23:16.912Z,94897.81
2023-02-21T06:25:19.109Z,94902.94
2023-02-21T06:27:20.676Z,94905.50
2023-02-21T06:29:22.316Z,94906.19
2023-02-21T06:31:24.693Z,94901.97
2023-02-21T06:33:26.363Z,94897.41
2023-02-21T06:35:28.061Z,94904.06
2023-02-21T06:37:29.788Z,94898.78
2023-02-21T06:39:31.444Z,94908.66
2023-02-21T06:41:33.022Z,94915.97
2023-02-21T06:43:38.178Z,94906.91
2023-02-21T06:45:39.930Z,94916.09
2023-02-21T06:47:41.573Z,94906.66
2023-02-21T06:49:43.523Z,94909.13
2023-02-21T06:51:45.118Z,94899.22
2023-02-21T06:53:50.210Z,94908.84
2023-02-21T06:55:52.529Z,94898.41
2023-02-21T06:57:54.195Z,94908.44
2023-02-21T06:59:56.375Z,94912.28
2023-02-21T07:01:58.301Z,94907.59
2023-02-21T07:04:00.300Z,94897.44
2023-02-21T07:06:01.899Z,94910.47
2023-02-21T07:08:03.752Z,94910.72
2023-02-21T07:10:05.836Z,94894.78
2023-02-21T07:12:08.921Z,94903.31
2023-02-21T07:14:11.482Z,94917.06
2023-02-21T07:16:14.587Z,94896.22
2023-02-21T07:18:16.272Z,94909.13
2023-02-21T07:20:17.971Z,94908.56
2023-02-21T07:22:26.056Z,94906.47
2023-02-21T07:24:27.648Z,94906.75
2023-02-21T07:26:29.262Z,94897.41
2023-02-21T07:28:30.823Z,94896.84
2023-02-21T07:30:32.626Z,94889.53
2023-02-21T07:32:34.237Z,94892.00
2023-02-21T07:34:35.861Z,94888.16
2023-02-21T07:36:40.156Z,94891.25
2023-02-21T07:38:42.000Z,94873.84
2023-02-21T07:40:43.779Z,94878.75
2023-02-21T07:42:45.533Z,94875.63
2023-02-21T07:44:48.044Z,94880.25
2023-02-21T07:46:49.709Z,94885.38
2023-02-21T07:48:51.341Z,94881.25
2023-02-21T07:50:52.970Z,94877.97
2023-02-21T07:52:54.769Z,94874.91
2023-02-21T07:54:56.544Z,94869.81
2023-02-21T07:56:58.123Z,94866.00
2023-02-21T07:58:59.688Z,94870.78
2023-02-21T08:01:02.421Z,94849.47
2023-02-21T08:03:04.176Z,94854.00
2023-02-21T08:05:07.561Z,94856.00
2023-02-21T08:07:09.472Z,94845.78
2023-02-21T08:09:11.067Z,94866.25
2023-02-21T08:11:12.925Z,94856.94
2023-02-21T08:13:14.826Z,94860.97
2023-02-21T08:15:16.437Z,94860.09
2023-02-21T08:17:18.024Z,94855.78
2023-02-21T08:19:19.727Z,94870.72
2023-02-21T08:21:21.299Z,94867.38
2023-02-21T08:23:23.328Z,94863.50
2023-02-21T08:25:24.939Z,94863.06
2023-02-21T08:27:26.500Z,94864.41
2023-02-21T08:29:28.999Z,94854.16
2023-02-21T08:31:30.667Z,94859.25
2023-02-21T08:33:32.340Z,94851.59
2023-02-21T08:35:34.007Z,94853.94
2023-02-21T08:37:37.389Z,94835.75
2023-02-21T08:39:38.969Z,94842.25
2023-02-21T08:41:45.567Z,94854.13
2023-02-21T08:43:47.234Z,94840.69
2023-02-21T08:45:48.865Z,94849.50
2023-02-21T08:47:51.614Z,94849.44
2023-02-21T08:49:53.186Z,94840.53
2023-02-21T08:51:55.227Z,94826.91
2023-02-21T08:53:57.139Z,94833.50
2023-02-21T08:55:58.767Z,94838.75
2023-02-21T08:58:00.476Z,94828.97
2023-02-21T09:00:02.333Z,94836.22
2023-02-21T09:02:03.961Z,94849.88
2023-02-21T09:04:06.781Z,94837.81
2023-02-21T09:06:08.910Z,94831.56
2023-02-21T09:08:11.493Z,94831.13
2023-02-21T09:10:13.152Z,94832.94
2023-02-21T09:12:14.777Z,94823.84
2023-02-21T09:14:17.076Z,94824.38
2023-02-21T09:16:18.689Z,94826.91
2023-02-21T09:18:20.492Z,94839.56
2023-02-21T09:20:24.646Z,94832.72
2023-02-21T09:22:26.321Z,94827.81
2023-02-21T09:24:28.099Z,94828.81
2023-02-21T09:26:32.457Z,94818.34
2023-02-21T09:28:34.093Z,94823.78
2023-02-21T09:30:35.881Z,94812.78
2023-02-21T09:32:38.681Z,94805.38
2023-02-21T09:34:40.349Z,94805.16
2023-02-21T09:36:42.037Z,94805.94
2023-02-21T09:38:43.673Z,94797.88
2023-02-21T09:40:50.653Z,94795.31
2023-02-21T09:42:54.108Z,94803.47
2023-02-21T09:44:55.817Z,94795.47
2023-02-21T09:47:05.761Z,94794.22
2023-02-21T09:49:13.853Z,94799.66
2023-02-21T09:51:16.858Z,94787.34
2023-02-21T09:53:26.469Z,94782.81
2023-02-21T09:55:35.544Z,94782.50
2023-02-21T09:57:37.286Z,94779.69
2023-02-21T09:59:39.447Z,94778.38
2023-02-21T10:01:59.672Z,94767.38
2023-02-21T10:04:20.130Z,94758.31
2023-02-21T10:06:34.309Z,94761.06
2023-02-21T10:08:37.434Z,94758.13
2023-02-21T10:10:55.736Z,94745.91
2023-02-21T10:13:21.891Z,94751.50
2023-02-21T10:15:54.515Z,94746.19
2023-02-21T10:17:56.009Z,94745.38
2023-02-21T10:20:01.656Z,94737.78
2023-02-21T10:22:14.564Z,94733.13
2023-02-21T10:24:23.733Z,94736.91
2023-02-21T10:26:28.761Z,94730.50
2023-02-21T10:28:30.331Z,94729.03
2023-02-21T10:30:37.447Z,94722.66
2023-02-21T10:32:39.085Z,94727.78
2023-02-21T10:34:46.311Z,94723.03
2023-02-21T10:36:49.576Z,94726.34
2023-02-21T10:38:58.128Z,94709.66
2023-02-21T10:41:04.091Z,94711.94
2023-02-21T10:43:17.052Z,94691.25
2023-02-21T10:45:19.461Z,94690.03
2023-02-21T10:47:35.286Z,94704.34
2023-02-21T10:49:42.892Z,94698.09
2023-02-21T10:51:44.465Z,94687.28
2023-02-21T10:53:47.257Z,94696.69
2023-02-21T10:56:13.306Z,94687.97
2023-02-21T10:58:19.325Z,94678.81
2023-02-21T11:00:38.394Z,94661.75
2023-02-21T11:02:41.215Z,94667.31
2023-02-21T11:04:43.354Z,94658.78
2023-02-21T11:06:48.162Z,94659.63
2023-02-21T11:08:49.981Z,94662.06
2023-02-21T11:10:56.449Z,94654.16
2023-02-21T11:13:20.963Z,94653.31
2023-02-21T11:15:23.386Z,94656.75
2023-02-21T11:17:27.070Z,94650.84
2023-02-21T11:19:28.922Z,94642.47
2023-02-21T11:21:31.163Z,94648.00
2023-02-21T11:23:33.474Z,94634.16
2023-02-21T11:25:41.814Z,94647.53
2023-02-21T11:27:46.357Z,94620.28
2023-02-21T11:29:50.220Z,94632.13
2023-02-21T11:31:52.830Z,94631.72
2023-02-21T11:34:02.958Z,94631.91
2023-02-21T11:36:20.754Z,94625.19
2023-02-21T11:38:37.953Z,94611.31
2023-02-21T11:40:52.225Z,94618.03
2023-02-21T11:43:14.707Z,94610.50
2023-02-21T11:45:19.378Z,94608.09
2023-02-21T11:47:29.017Z,94604.25
2023-02-21T11:49:39.373Z,94599.16
2023-02-21T11:51:46.068Z,94593.69
2023-02-21T11:53:47.697Z,94607.09
2023-02-21T11:55:59.338Z,94583.28
2023-02-21T11:58:25.681Z,94594.84
2023-02-21T12:01:02.097Z,94581.06
2023-02-21T12:03:12.808Z,94582.47
2023-02-21T12:05:48.041Z,94574.53
2023-02-21T12:07:56.774Z,94570.25
2023-02-21T12:10:39.881Z,94560.91
2023-02-21T12:12:58.650Z,94556.00
2023-02-21T12:15:15.787Z,94557.44
2023-02-21T12:17:41.190Z,94564.97
2023-02-21T12:19:42.992Z,94549.69
2023-02-21T12:21:56.324Z,94543.97
2023-02-21T12:24:41.078Z,94544.59
2023-02-21T12:26:57.920Z,94530.09
2023-02-21T12:29:05.204Z,94540.34
2023-02-21T12:31:31.746Z,94534.00
2023-02-21T12:33:48.658Z,94527.50
2023-02-21T12:36:12.275Z,94530.56
2023-02-21T12:38:39.065Z,94516.28
2023-02-21T12:40:53.206Z,94530.34
2023-02-21T12:43:07.878Z,94518.75
2023-02-21T12:45:28.917Z,94525.03
2023-02-21T12:47:33.144Z,94520.97
2023-02-21T12:50:07.014Z,94528.94
2023-02-21T12:52:36.257Z,94519.56
2023-02-21T12:54:42.726Z,94524.66
2023-02-21T12:57:15.523Z,94525.03
2023-02-21T12:59:43.781Z,94523.00
2023-02-21T13:01:49.992Z,94518.53
2023-02-21T13:04:00.722Z,94510.38
2023-02-21T13:06:05.125Z,94512.63
2023-02-21T13:08:26.940Z,94518.53
2023-02-21T13:10:34.038Z,94508.16
2023-02-21T13:12:41.872Z,94515.88
2023-02-21T13:14:59.840Z,94506.31
2023-02-21T13:17:01.682Z,94493.69
2023-02-21T13:19:05.480Z,94495.72
2023-02-21T13:21:35.560Z,94497.16
2023-02-21T13:24:17.865Z,94484.72
2023-02-21T13:26:22.374Z,94492.84
2023-02-21T13:28:26.011Z,94493.69
2023-02-21T13:30:36.347Z,94493.88
2023-02-21T13:32:40.318Z,94494.66
2023-02-21T13:34:45.686Z,94484.47
2023-02-21T13:36:48.296Z,94478.09
2023-02-21T13:39:22.222Z,94477.38
2023-02-21T13:41:28.727Z,94473.72
2023-02-21T13:43:33.115Z,94487.78
2023-02-21T13:45:35.107Z,94473.72
2023-02-21T13:48:00.367Z,94466.53
2023-02-21T13:50:40.342Z,94460.81
2023-02-21T13:52:53.957Z,94467.16
2023-02-21T13:55:21.172Z,94451.88
2023-02-21T13:57:35.362Z,94455.94
2023-02-21T13:59:37.512Z,94459.59
2023-02-21T14:01:41.840Z,94460.59
2023-02-21T14:03:43.634Z,94456.97
2023-02-21T14:05:45.649Z,94462.09
2023-02-21T14:07:51.319Z,94455.09
2023-02-21T14:09:54.668Z,94454.88
2023-02-21T14:11:56.654Z,94458.94
2023-02-21T14:14:28.633Z,94457.72
2023-02-21T14:16:49.268Z,94457.72
2023-02-21T14:19:11.692Z,94443.03
2023-02-21T14:21:22.237Z,94450.56
2023-02-21T14:23:49.661Z,94460.91
2023-02-21T14:26:00.383Z,94463.97
2023-02-21T14:28:02.476Z,94461.19
2023-02-21T14:30:11.110Z,94450.53
2023-02-21T14:32:12.846Z,94447.69
2023-02-21T14:34:15.500Z,94453.59
2023-02-21T14:36:18.815Z,94451.38
2023-02-21T14:38:25.319Z,94451.34
2023-02-21T14:40:49.563Z,94448.78
2023-02-21T14:43:10.847Z,94451.22
2023-02-21T14:45:12.813Z,94441.19
2023-02-21T14:47:27.296Z,94448.34
2023-02-21T14:49:46.646Z,94442.47
2023-02-21T14:52:15.773Z,94438.38
2023-02-21T14:54:45.077Z,94453.72
2023-02-21T14:57:11.539Z,94453.72
2023-02-21T14:59:32.559Z,94447.41
2023-02-21T15:01:51.542Z,94453.28
2023-02-21T15:03:58.390Z,94436.97
2023-02-21T15:06:14.092Z,94436.78
2023-02-21T15:08:17.936Z,94433.88
2023-02-21T15:10:28.403Z,94436.53
2023-02-21T15:12:30.032Z,94439.38
2023-02-21T15:14:36.944Z,94438.59
2023-02-21T15:16:42.309Z,94442.09
2023-02-21T15:19:18.849Z,94445.97
2023-02-21T15:21:20.673Z,94444.38
2023-02-21T15:23:29.636Z,94443.97
2023-02-21T15:25:31.370Z,94454.34
2023-02-21T15:27:33.595Z,94445.97
2023-02-21T15:29:35.791Z,94453.53
2023-02-21T15:31:42.169Z,94455.63
2023-02-21T15:33:44.252Z,94454.59
2023-02-21T15:35:53.355Z,94446.06
2023-02-21T15:37:57.005Z,94453.19
2023-02-21T15:40:04.261Z,94466.41
2023-02-21T15:42:09.150Z,94458.88
2023-02-21T15:44:28.691Z,94456.84
2023-02-21T15:46:43.569Z,94455.22
2023-02-21T15:48:45.664Z,94461.97
2023-02-21T15:50:47.628Z,94458.28
2023-02-21T15:52:52.828Z,94463.38
2023-02-21T15:55:29.319Z,94465.00
2023-02-21T15:57:30.997Z,94468.63
2023-02-21T15:59:33.364Z,94465.97
2023-02-21T16:01:35.115Z,94466.97
2023-02-21T16:03:39.747Z,94470.03
2023-02-21T16:05:41.329Z,94466.75
2023-02-21T16:07:44.390Z,94464.28
2023-02-21T16:09:48.584Z,94469.56
2023-02-21T16:12:06.812Z,94478.91
2023-02-21T16:14:35.627Z,94482.75
2023-02-21T16:16:37.287Z,94486.59
2023-02-21T16:18:39.498Z,94481.69
2023-02-21T16:20:43.117Z,94484.13
2023-02-21T16:23:08.144Z,94490.78
2023-02-21T16:25:12.898Z,94492.19
2023-02-21T16:27:18.810Z,94492.78
2023-02-21T16:29:20.406Z,94493.75
2023-02-21T16:31:27.696Z,94494.72
2023-02-21T16:33:30.215Z,94497.75
2023-02-21T16:35:32.998Z,94496.13
2023-02-21T16:37:34.596Z,94497.69
2023-02-21T16:39:36.269Z,94492.81
2023-02-21T16:41:37.885Z,94493.00
2023-02-21T16:43:39.449Z,94497.03
2023-02-21T16:45:42.121Z,94492.34
2023-02-21T16:47:48.834Z,94495.00
2023-02-21T16:49:52.059Z,94494.81
2023-02-21T16:51:54.543Z,94502.09
2023-02-21T16:53:56.182Z,94508.59
2023-02-21T16:55:59.464Z,94505.09
2023-02-21T16:58:09.343Z,94503.69
2023-02-21T17:00:11.356Z,94508.34
2023-02-21T17:02:15.092Z,94500.81
2023-02-21T17:04:24.112Z,94501.19
2023-02-21T17:06:27.276Z,94506.84
2023-02-21T17:08:29.217Z,94504.81
2023-02-21T17:10:32.794Z,94505.38
2023-02-21T17:12:34.482Z,94504.75
2023-02-21T17:14:36.083Z,94510.78
2023-02-21T17:16:38.418Z,94508.91
2023-02-21T17:18:40.010Z,94519.22
2023-02-21T17:20:41.657Z,94515.34
2023-02-21T17:22:43.278Z,94514.66
2023-02-21T17:24:45.015Z,94511.13
2023-02-21T17:26:46.607Z,94516.97
2023-02-21T17:28:49.525Z,94515.72
2023-02-21T17:30:51.320Z,94516.09
2023-02-21T17:32:53.146Z,94513.59
2023-02-21T17:34:54.863Z,94511.50
2023-02-21T17:36:56.457Z,94508.59
2023-02-21T17:38:58.996Z,94509.53
2023-02-21T17:41:00.664Z,94516.91
2023-02-21T17:43:03.402Z,94511.41
2023-02-21T17:45:05.959Z,94516.47
2023-02-21T17:47:08.860Z,94516.03
2023-02-21T17:49:10.459Z,94522.94
2023-02-21T17:51:26.890Z,94518.47
2023-02-21T17:53:28.707Z,94523.38
2023-02-21T17:55:31.036Z,94527.00
2023-02-21T17:57:37.281Z,94519.31
2023-02-21T17:59:39.653Z,94520.28
2023-02-21T18:01:41.638Z,94516.59
2023-02-21T18:03:48.432Z,94523.25
2023-02-21T18:05:50.160Z,94525.41
2023-02-21T18:07:53.512Z,94517.25
2023-02-21T18:09:55.119Z,94521.91
2023-02-21T18:11:59.820Z,94520.63
2023-02-21T18:14:01.715Z,94519.81
2023-02-21T18:16:05.344Z,94523.44
2023-02-21T18:18:08.346Z,94526.25
2023-02-21T18:20:10.763Z,94529.91
2023-02-21T18:22:12.563Z,94532.88
2023-02-21T18:24:15.146Z,94532.44
2023-02-21T18:26:17.278Z,94531.34
2023-02-21T18:28:18.875Z,94531.19
2023-02-21T18:30:21.875Z,94534.63
2023-02-21T18:32:24.238Z,94531.53
2023-02-21T18:34:25.927Z,94532.81
2023-02-21T18:36:27.592Z,94527.75
2023-02-21T18:38:29.215Z,94530.38
2023-02-21T18:40:44.560Z,94530.38
2023-02-21T18:42:47.858Z,94528.16
2023-02-21T18:44:50.737Z,94536.28
2023-02-21T18:46:56.006Z,94537.91
2023-02-21T18:48:57.753Z,94535.25
2023-02-21T18:50:59.418Z,94541.88
2023-02-21T18:53:02.313Z,94545.88
2023-02-21T18:55:04.248Z,94540.19
2023-02-21T18:57:05.890Z,94546.44
2023-02-21T18:59:07.453Z,94548.34
2023-02-21T19:01:11.550Z,94552.06
2023-02-21T19:03:13.721Z,94552.63
2023-02-21T19:05:16.762Z,94546.34
2023-02-21T19:07:18.483Z,94552.41
2023-02-21T19:09:20.126Z,94554.41
2023-02-21T19:11:21.736Z,94557.41
2023-02-21T19:13:23.409Z,94545.78
2023-02-21T19:15:25.461Z,94553.25
2023-02-21T19:17:27.091Z,94548.78
2023-02-21T19:19:32.183Z,94557.50
2023-02-21T19:21:34.138Z,94554.38
2023-02-21T19:23:35.747Z,94551.97
2023-02-21T19:25:37.441Z,94550.69
2023-02-21T19:27:38.995Z,94559.88
2023-02-21T19:29:42.073Z,94562.91
2023-02-21T19:31:43.774Z,94566.13
2023-02-21T19:33:45.414Z,94568.97
2023-02-21T19:35:47.105Z,94566.50
2023-02-21T19:37:48.808Z,94570.00
2023-02-21T19:39:50.385Z,94581.38
2023-02-21T19:41:52.106Z,94575.16
2023-02-21T19:43:53.758Z,94581.25
2023-02-21T19:45:55.438Z,94574.34
2023-02-21T19:47:57.184Z,94571.09
2023-02-21T19:49:59.109Z,94584.72
2023-02-21T19:52:00.686Z,94580.25
2023-02-21T19:54:02.336Z,94579.44
2023-02-21T19:56:04.237Z,94572.19
2023-02-21T19:58:07.408Z,94580.72
2023-02-21T20:00:11.306Z,94585.28
2023-02-21T20:02:12.844Z,94585.63
2023-02-21T20:04:16.258Z,94581.66
2023-02-21T20:06:19.359Z,94589.81
2023-02-21T20:08:21.018Z,94590.44
2023-02-21T20:10:25.439Z,94584.88
2023-02-21T20:12:27.355Z,94593.59
2023-02-21T20:14:29.411Z,94596.22
2023-02-21T20:16:33.618Z,94596.06
2023-02-21T20:18:35.247Z,94595.97
2023-02-21T20:20:36.986Z,94603.75
2023-02-21T20:22:39.203Z,94595.94
2023-02-21T20:24:45.815Z,94599.91
2023-02-21T20:26:51.984Z,94598.91
2023-02-21T20:28:55.053Z,94600.38
2023-02-21T20:30:56.904Z,94596.91
2023-02-21T20:32:59.014Z,94596.28
2023-02-21T20:35:01.801Z,94592.88
2023-02-21T20:37:03.428Z,94592.88
2023-02-21T20:39:07.185Z,94589.44
2023-02-21T20:41:10.994Z,94597.38
2023-02-21T20:43:13.321Z,94588.28
2023-02-21T20:45:14.968Z,94592.47
2023-02-21T20:47:17.461Z,94594.81
2023-02-21T20:49:21.475Z,94588.09
2023-02-21T20:51:36.704Z,94587.72
2023-02-21T20:53:38.362Z,94591.66
2023-02-21T20:55:40.347Z,94591.50
2023-02-21T20:57:43.345Z,94590.47
2023-02-21T20:59:46.359Z,94588.03
2023-02-21T21:01:48.728Z,94586.41
2023-02-21T21:03:50.363Z,94588.38
2023-02-21T21:05:52.051Z,94580.66
2023-02-21T21:07:55.785Z,94580.66
2023-02-21T21:09:57.475Z,94579.56
2023-02-21T21:12:02.193Z,94578.28
2023-02-21T21:14:03.948Z,94583.53
2023-02-21T21:16:05.987Z,94581.38
2023-02-21T21:18:10.276Z,94575.75
2023-02-21T21:20:16.260Z,94575.13
2023-02-21T21:22:20.744Z,94575.28
2023-02-21T21:24:22.380Z,94573.69
2023-02-21T21:26:25.660Z,94575.63
2023-02-21T21:28:27.631Z,94584.19
2023-02-21T21:30:30.678Z,94576.16
2023-02-21T21:32:32.347Z,94573.56
2023-02-21T21:34:33.922Z,94574.38
2023-02-21T21:36:36.072Z,94579.94
2023-02-21T21:38:40.752Z,94573.19
2023-02-21T21:40:47.826Z,94572.44
2023-02-21T21:42:52.135Z,94569.97
2023-02-21T21:44:54.969Z,94567.34
2023-02-21T21:46:56.551Z,94574.56
2023-02-21T21:48:58.184Z,94577.81
2023-02-21T21:50:59.766Z,94572.06
2023-02-21T21:53:01.390Z,94572.88
2023-02-21T21:55:03.503Z,94578.00
2023-02-21T21:57:05.559Z,94571.94
2023-02-21T21:59:11.016Z,94566.97
2023-02-21T22:01:15.478Z,94562.84
2023-02-21T22:03:18.422Z,94556.78
2023-02-21T22:05:21.145Z,94562.69
2023-02-21T22:07:23.045Z,94571.53
2023-02-21T22:09:25.638Z,94569.41
2023-02-21T22:11:27.861Z,94564.28
2023-02-21T22:13:29.584Z,94565.09
2023-02-21T22:15:31.154Z,94571.28
2023-02-21T22:17:32.713Z,94568.50
2023-02-21T22:19:34.725Z,94564.25
2023-02-21T22:21:36.811Z,94563.25
2023-02-21T22:23:39.002Z,94560.44
2023-02-21T22:25:40.673Z,94562.56
2023-02-21T22:27:42.326Z,94567.97
2023-02-21T22:29:43.963Z,94561.38
2023-02-21T22:31:47.039Z,94560.41
2023-02-21T22:33:48.828Z,94561.56
2023-02-21T22:35:50.486Z,94567.81
2023-02-21T22:37:54.559Z,94564.19
2023-02-21T22:39:56.209Z,94565.81
2023-02-21T22:41:57.861Z,94565.00
2023-02-21T22:44:00.424Z,94565.19
2023-02-21T22:46:02.598Z,94568.16
2023-02-21T22:48:07.340Z,94559.13
2023-02-21T22:50:08.967Z,94576.03
2023-02-21T22:52:10.843Z,94579.00
2023-02-21T22:54:16.132Z,94576.28
2023-02-21T22:56:23.530Z,94583.38
2023-02-21T22:58:25.231Z,94583.88
2023-02-21T23:00:33.276Z,94591.13
2023-02-21T23:02:36.145Z,94585.38
2023-02-21T23:04:38.392Z,94588.97
2023-02-21T23:06:40.066Z,94591.75
2023-02-21T23:08:47.614Z,94591.19
2023-02-21T23:10:49.594Z,94586.41
2023-02-21T23:12:54.138Z,94592.50
2023-02-21T23:14:55.975Z,94590.16
2023-02-21T23:16:58.760Z,94592.44
2023-02-21T23:19:01.198Z,94593.72
2023-02-21T23:21:04.685Z,94598.63
2023-02-21T23:23:06.345Z,94603.22
2023-02-21T23:25:19.897Z,94598.56
2023-02-21T23:27:21.500Z,94604.50
2023-02-21T23:29:26.452Z,94597.88
2023-02-21T23:31:28.120Z,94597.34
2023-02-21T23:33:31.016Z,94597.69
2023-02-21T23:35:32.808Z,94604.09
2023-02-21T23:37:38.606Z,94597.16
2023-02-21T23:39:42.030Z,94602.72
2023-02-21T23:41:48.893Z,94605.28
2023-02-21T23:43:51.435Z,94605.16
2023-02-21T23:45:53.532Z,94608.00
2023-02-21T23:47:55.860Z,94604.31
2023-02-21T23:49:58.142Z,94604.47
2023-02-21T23:52:01.661Z,94610.69
2023-02-21T23:54:03.873Z,94605.47
2023-02-21T23:56:05.961Z,94605.47
2023-02-21T23:58:10.697Z,94614.31
